Tuesday, January 22, 2019, 4:11 PM EST
Back to Local

KGED, Georgetown Sussex Co Airport

Location: Georgetown, DE, United States Lat: 38.683
Local Time: 4:11 PM EST (21:11 GMT) Lon: -75.367
Time Zone: US/Eastern Elev: 52 ft

Show me the last for .
Show Coded

Time T Td Feel RH Dir Speed Gust Alt SLP Vis Weather Sky Remarks
2019-01-22 15:54 35 6 31 29 190° 5 - 30.65 30.65 10 CLR None
2019-01-22 14:54 35 4 - 26 - Calm - 30.66 30.65 10 CLR None
2019-01-22 13:54 35 3 32 25 360° 3 - 30.67 30.67 10 CLR None
2019-01-22 12:54 32 4 - 29 - Calm - 30.67 30.67 10 CLR 6-hr Min Temp (1pm): 16.0°F
6-hr Max Temp (1pm): 32.0°F
2019-01-22 11:54 29 4 24 33 300° 5 - 30.69 30.69 10 CLR None
2019-01-22 10:54 27 4 20 36 10° 6 - 30.73 30.73 10 CLR None
2019-01-22 09:54 23 4 16 43 Variable 6 - 30.73 30.73 10 CLR None
2019-01-22 08:54 20 4 10 49 340° 8 - 30.71 30.71 10 CLR None
2019-01-22 07:54 17 3 9 53 Variable 6 - 30.69 30.69 10 CLR None
2019-01-22 06:54 17 2 12 50 300° 3 - 30.68 30.68 10 CLR 6-hr Min Temp (7am): 17.1°F
6-hr Max Temp (7am): 19.0°F
2019-01-22 05:54 17 1 9 48 320° 6 - 30.65 30.65 10 CLR None
2019-01-22 04:54 17 0 9 46 Variable 6 - 30.63 30.63 10 CLR None
2019-01-22 03:54 18 0 10 44 320° 6 - 30.63 30.63 10 CLR None
2019-01-22 02:54 18 -1 10 42 Variable 6 - 30.62 30.62 10 CLR None
2019-01-22 01:54 18 -1 11 42 310° 5 - 30.58 30.58 10 CLR None
2019-01-22 00:54 19 -3 12 36 300° 5 - 30.56 30.56 10 CLR 6-hr Min Temp (1am): 19.0°F
6-hr Max Temp (1am): 21.9°F
2019-01-21 23:54 20 -3 9 35 320° 9 - 30.54 30.54 10 CLR 24-hr Min Temp (12am): 16.0°F
24-hr Max Temp (12am): 24.1°F
2019-01-21 22:54 20 -2 12 37 330° 6 - 30.53 30.53 10 CLR None
2019-01-21 21:54 20 -3 4 35 320° 13 20 30.50 30.50 10 CLR None
2019-01-21 20:54 21 -3 6 33 330° 9 18 30.48 30.48 10 CLR None
2019-01-21 19:54 21 -3 7 33 310° 12 17 30.45 30.45 10 CLR None
2019-01-21 18:54 22 -4 7 31 300° 9 18 30.41 30.41 10 CLR 6-hr Min Temp (7pm): 21.9°F
6-hr Max Temp (7pm): 24.1°F
2019-01-21 17:54 22 -5 5 29 310° 8 24 30.38 30.38 10 CLR None
2019-01-21 16:54 23 -6 8 26 310° 12 22 30.34 30.34 10 CLR None

Support USWX by starting your Amazon purchase here.